createdAt,value
2023-04-09T00:00:38.939Z,8.83
2023-04-09T00:01:38.975Z,8.84
2023-04-09T00:02:39.007Z,8.84
2023-04-09T00:03:38.986Z,8.83
2023-04-09T00:04:38.947Z,8.83
2023-04-09T00:05:38.885Z,8.84
2023-04-09T00:06:38.877Z,8.83
2023-04-09T00:07:38.869Z,8.83
2023-04-09T00:08:38.866Z,8.81
2023-04-09T00:09:38.845Z,8.81
2023-04-09T00:10:38.873Z,8.81
2023-04-09T00:11:38.827Z,8.81
2023-04-09T00:12:38.825Z,8.81
2023-04-09T00:13:39.852Z,8.81
2023-04-09T00:14:38.789Z,8.81
2023-04-09T00:15:38.784Z,8.78
2023-04-09T00:16:38.890Z,8.79
2023-04-09T00:17:38.771Z,8.78
2023-04-09T00:18:38.737Z,8.78
2023-04-09T00:19:38.739Z,8.79
2023-04-09T00:20:38.741Z,8.78
2023-04-09T00:21:38.714Z,8.79
2023-04-09T00:22:38.728Z,8.79
2023-04-09T00:23:38.691Z,8.79
2023-04-09T00:24:38.681Z,8.81
2023-04-09T00:25:38.669Z,8.79
2023-04-09T00:26:38.655Z,8.81
2023-04-09T00:27:38.641Z,8.81
2023-04-09T00:28:38.658Z,8.81
2023-04-09T00:29:38.623Z,8.81
2023-04-09T00:30:38.621Z,8.81
2023-04-09T00:31:38.649Z,8.83
2023-04-09T00:32:38.609Z,8.83
2023-04-09T00:33:38.578Z,8.81
2023-04-09T00:34:38.588Z,8.79
2023-04-09T00:35:38.582Z,8.79
2023-04-09T00:36:38.546Z,8.79
2023-04-09T00:37:38.538Z,8.81
2023-04-09T00:38:38.523Z,8.79
2023-04-09T00:39:38.506Z,8.78
2023-04-09T00:40:38.525Z,8.79
2023-04-09T00:41:38.487Z,8.79
2023-04-09T00:42:38.484Z,8.78
2023-04-09T00:43:38.460Z,8.78
2023-04-09T00:44:38.461Z,8.76
2023-04-09T00:45:38.463Z,8.76
2023-04-09T00:46:38.487Z,8.75
2023-04-09T00:47:38.523Z,8.75
2023-04-09T00:48:38.419Z,8.75
2023-04-09T00:49:38.403Z,8.73
2023-04-09T00:50:38.408Z,8.72
2023-04-09T00:51:38.388Z,8.73
2023-04-09T00:52:38.394Z,8.73
2023-04-09T00:53:38.357Z,8.72
2023-04-09T00:54:38.359Z,8.72
2023-04-09T00:55:38.348Z,8.71
2023-04-09T00:56:38.332Z,8.71
2023-04-09T00:57:38.309Z,8.68
2023-04-09T00:58:38.351Z,8.68
2023-04-09T00:59:38.297Z,8.68
2023-04-09T01:00:38.290Z,8.69
2023-04-09T01:01:38.284Z,8.68
2023-04-09T01:02:38.367Z,8.68
2023-04-09T01:03:38.297Z,8.69
2023-04-09T01:04:38.254Z,8.68
2023-04-09T01:05:38.229Z,8.68
2023-04-09T01:06:38.214Z,8.66
2023-04-09T01:07:38.229Z,8.69
2023-04-09T01:08:38.202Z,8.66
2023-04-09T01:09:38.182Z,8.68
2023-04-09T01:10:38.193Z,8.68
2023-04-09T01:11:38.156Z,8.68
2023-04-09T01:12:38.161Z,8.68
2023-04-09T01:13:38.140Z,8.69
2023-04-09T01:14:38.134Z,8.68
2023-04-09T01:15:38.112Z,8.68
2023-04-09T01:16:38.224Z,8.69
2023-04-09T01:17:38.101Z,8.68
2023-04-09T01:18:38.073Z,8.68
2023-04-09T01:19:38.080Z,8.66
2023-04-09T01:20:38.061Z,8.66
2023-04-09T01:21:38.064Z,8.68
2023-04-09T01:22:38.036Z,8.68
2023-04-09T01:23:38.026Z,8.68
2023-04-09T01:24:38.057Z,8.68
2023-04-09T01:25:37.998Z,8.69
2023-04-09T01:26:38.007Z,8.68
2023-04-09T01:27:37.969Z,8.68
2023-04-09T01:28:37.965Z,8.68
2023-04-09T01:29:37.950Z,8.66
2023-04-09T01:30:38.010Z,8.66
2023-04-09T01:31:37.953Z,8.65
2023-04-09T01:32:37.968Z,8.65
2023-04-09T01:33:37.925Z,8.62
2023-04-09T01:34:37.901Z,8.62
2023-04-09T01:35:37.903Z,8.63
2023-04-09T01:36:37.895Z,8.63
2023-04-09T01:37:37.864Z,8.63
2023-04-09T01:38:37.850Z,8.65
2023-04-09T01:39:37.859Z,8.65
2023-04-09T01:40:37.832Z,8.63
2023-04-09T01:41:37.837Z,8.65
2023-04-09T01:42:37.814Z,8.65
2023-04-09T01:43:37.802Z,8.65
2023-04-09T01:44:37.789Z,8.65
2023-04-09T01:45:37.781Z,8.65
2023-04-09T01:46:37.796Z,8.65
2023-04-09T01:47:37.787Z,8.65
2023-04-09T01:48:37.760Z,8.65
2023-04-09T01:49:37.736Z,8.65
2023-04-09T01:50:37.723Z,8.65
2023-04-09T01:51:37.754Z,8.63
2023-04-09T01:52:37.698Z,8.63
2023-04-09T01:53:37.709Z,8.65
2023-04-09T01:54:37.678Z,8.65
2023-04-09T01:55:37.673Z,8.63
2023-04-09T01:56:37.678Z,8.63
2023-04-09T01:57:37.656Z,8.63
2023-04-09T01:58:37.642Z,8.63
2023-04-09T01:59:37.639Z,8.65
2023-04-09T02:00:37.612Z,8.65
2023-04-09T02:01:37.711Z,8.65
2023-04-09T02:02:37.777Z,8.66
2023-04-09T02:03:37.673Z,8.65
2023-04-09T02:04:37.568Z,8.66
2023-04-09T02:05:37.555Z,8.65
2023-04-09T02:06:37.566Z,8.68
2023-04-09T02:07:37.546Z,8.65
2023-04-09T02:08:37.538Z,8.66
2023-04-09T02:09:37.523Z,8.66
2023-04-09T02:10:37.507Z,8.66
2023-04-09T02:11:37.518Z,8.65
2023-04-09T02:12:37.479Z,8.65
2023-04-09T02:13:37.480Z,8.63
2023-04-09T02:14:37.463Z,8.65
2023-04-09T02:15:37.477Z,8.65
2023-04-09T02:16:37.452Z,8.65
2023-04-09T02:17:37.470Z,8.63
2023-04-09T02:18:37.418Z,8.63
2023-04-09T02:19:37.409Z,8.65
2023-04-09T02:20:37.403Z,8.63
2023-04-09T02:21:37.403Z,8.65
2023-04-09T02:22:37.372Z,8.63
2023-04-09T02:23:37.359Z,8.62
2023-04-09T02:24:37.362Z,8.60
2023-04-09T02:25:37.349Z,8.62
2023-04-09T02:26:37.353Z,8.62
2023-04-09T02:27:37.323Z,8.62
2023-04-09T02:28:37.316Z,8.60
2023-04-09T02:29:37.313Z,8.62
2023-04-09T02:30:37.285Z,8.58
2023-04-09T02:31:37.606Z,8.58
2023-04-09T02:32:37.278Z,8.58
2023-04-09T02:33:37.249Z,8.58
2023-04-09T02:34:37.245Z,8.58
2023-04-09T02:35:37.259Z,8.58
2023-04-09T02:36:37.251Z,8.58
2023-04-09T02:37:37.217Z,8.58
2023-04-09T02:38:37.218Z,8.58
2023-04-09T02:39:37.184Z,8.57
2023-04-09T02:40:37.179Z,8.58
2023-04-09T02:41:37.169Z,8.58
2023-04-09T02:42:37.167Z,8.58
2023-04-09T02:43:37.156Z,8.58
2023-04-09T02:44:37.132Z,8.57
2023-04-09T02:45:37.124Z,8.58
2023-04-09T02:46:37.154Z,8.57
2023-04-09T02:47:37.162Z,8.55
2023-04-09T02:48:37.095Z,8.55
2023-04-09T02:49:37.079Z,8.55
2023-04-09T02:50:37.057Z,8.55
2023-04-09T02:51:37.053Z,8.54
2023-04-09T02:52:37.071Z,8.54
2023-04-09T02:53:37.045Z,8.51
2023-04-09T02:54:37.031Z,8.51
2023-04-09T02:55:37.017Z,8.51
2023-04-09T02:56:37.003Z,8.50
2023-04-09T02:57:37.008Z,8.48
2023-04-09T02:58:36.983Z,8.48
2023-04-09T02:59:36.975Z,8.48
2023-04-09T03:00:36.961Z,8.48
2023-04-09T03:01:37.090Z,8.50
2023-04-09T03:02:37.079Z,8.51
2023-04-09T03:03:36.997Z,8.50
2023-04-09T03:04:36.914Z,8.50
2023-04-09T03:05:36.904Z,8.50
2023-04-09T03:06:36.909Z,8.50
2023-04-09T03:07:36.921Z,8.50
2023-04-09T03:08:36.873Z,8.50
2023-04-09T03:09:36.872Z,8.48
2023-04-09T03:10:36.851Z,8.48
2023-04-09T03:11:36.834Z,8.48
2023-04-09T03:12:36.854Z,8.50
2023-04-09T03:13:36.826Z,8.48
2023-04-09T03:14:36.815Z,8.44
2023-04-09T03:15:36.819Z,8.42
2023-04-09T03:16:36.787Z,8.37
2023-04-09T03:17:36.830Z,8.36
2023-04-09T03:18:36.763Z,8.35
2023-04-09T03:19:36.755Z,8.35
2023-04-09T03:20:36.750Z,8.36
2023-04-09T03:21:36.729Z,8.35
2023-04-09T03:22:36.756Z,8.35
2023-04-09T03:23:36.704Z,8.36
2023-04-09T03:24:36.701Z,8.36
2023-04-09T03:25:36.701Z,8.36
2023-04-09T03:26:36.681Z,8.37
2023-04-09T03:27:36.685Z,8.37
2023-04-09T03:28:36.647Z,8.37
2023-04-09T03:29:36.643Z,8.36
2023-04-09T03:30:36.627Z,8.37
2023-04-09T03:31:36.743Z,8.37
2023-04-09T03:32:36.678Z,8.39
2023-04-09T03:33:36.600Z,8.39
2023-04-09T03:34:36.596Z,8.39
2023-04-09T03:35:36.674Z,8.39
2023-04-09T03:36:36.567Z,8.40
2023-04-09T03:37:37.199Z,8.40
2023-04-09T03:38:36.538Z,8.37
2023-04-09T03:39:36.556Z,8.40
2023-04-09T03:40:36.528Z,8.40
2023-04-09T03:41:36.526Z,8.40
2023-04-09T03:42:36.523Z,8.39
2023-04-09T03:43:36.492Z,8.40
2023-04-09T03:44:36.481Z,8.40
2023-04-09T03:45:36.469Z,8.42
2023-04-09T03:46:36.504Z,8.39
2023-04-09T03:47:36.478Z,8.42
2023-04-09T03:48:36.442Z,8.42
2023-04-09T03:49:36.428Z,8.42
2023-04-09T03:50:36.413Z,8.42
2023-04-09T03:51:36.408Z,8.40
2023-04-09T03:52:36.414Z,8.40
2023-04-09T03:53:36.376Z,8.42
2023-04-09T03:54:36.363Z,8.42
2023-04-09T03:55:36.367Z,8.39
2023-04-09T03:56:36.346Z,8.39
2023-04-09T03:57:36.383Z,8.39
2023-04-09T03:58:36.329Z,8.39
2023-04-09T03:59:36.318Z,8.39
2023-04-09T04:00:36.307Z,8.39
2023-04-09T04:01:36.359Z,8.37
2023-04-09T04:02:36.474Z,8.39
2023-04-09T04:03:36.382Z,8.39
2023-04-09T04:04:36.285Z,8.39
2023-04-09T04:05:36.259Z,8.37
2023-04-09T04:06:36.244Z,8.39
2023-04-09T04:07:36.243Z,8.39
2023-04-09T04:08:36.211Z,8.37
2023-04-09T04:09:36.209Z,8.39
2023-04-09T04:10:36.192Z,8.37
2023-04-09T04:11:36.179Z,8.37
2023-04-09T04:12:36.195Z,8.37
2023-04-09T04:13:36.158Z,8.37
2023-04-09T04:14:36.147Z,8.37
2023-04-09T04:15:36.135Z,8.37
2023-04-09T04:16:36.193Z,8.36
2023-04-09T04:17:36.160Z,8.37
2023-04-09T04:18:36.109Z,8.37
2023-04-09T04:19:36.095Z,8.37
2023-04-09T04:20:36.083Z,8.36
2023-04-09T04:21:36.080Z,8.37
2023-04-09T04:22:36.071Z,8.36
2023-04-09T04:23:36.051Z,8.36
2023-04-09T04:24:36.035Z,8.36
2023-04-09T04:25:36.032Z,8.36
2023-04-09T04:26:36.013Z,8.35
2023-04-09T04:27:36.037Z,8.36
2023-04-09T04:28:35.998Z,8.35
2023-04-09T04:29:35.984Z,8.35
2023-04-09T04:30:35.974Z,8.36
2023-04-09T04:31:35.991Z,8.36
2023-04-09T04:32:36.012Z,8.35
2023-04-09T04:33:35.943Z,8.36
2023-04-09T04:34:35.931Z,8.36
2023-04-09T04:35:35.976Z,8.37
2023-04-09T04:36:35.913Z,8.37
2023-04-09T04:37:35.911Z,8.36
2023-04-09T04:38:35.888Z,8.37
2023-04-09T04:39:35.888Z,8.36
2023-04-09T04:40:35.867Z,8.36
2023-04-09T04:41:35.847Z,8.36
2023-04-09T04:42:35.854Z,8.35
2023-04-09T04:43:35.834Z,8.35
2023-04-09T04:44:35.824Z,8.35
2023-04-09T04:45:35.836Z,8.36
2023-04-09T04:46:35.805Z,8.35
2023-04-09T04:47:35.853Z,8.35
2023-04-09T04:48:35.777Z,8.36
2023-04-09T04:49:35.770Z,8.36
2023-04-09T04:50:35.757Z,8.35
2023-04-09T04:51:35.762Z,8.35
2023-04-09T04:52:35.757Z,8.36
2023-04-09T04:53:35.716Z,8.35
2023-04-09T04:54:35.719Z,8.35
2023-04-09T04:55:35.701Z,8.36
2023-04-09T04:56:35.744Z,8.36
2023-04-09T04:57:35.694Z,8.36
2023-04-09T04:58:35.669Z,8.36
2023-04-09T04:59:35.675Z,8.36
2023-04-09T05:00:35.639Z,8.36
2023-04-09T05:01:35.689Z,8.35
2023-04-09T05:02:35.862Z,8.33
2023-04-09T05:03:35.715Z,8.33
2023-04-09T05:04:42.179Z,8.32
2023-04-09T05:05:35.629Z,8.32
2023-04-09T05:06:35.594Z,8.33
2023-04-09T05:07:35.592Z,8.33
2023-04-09T05:08:35.567Z,8.33
2023-04-09T05:09:35.568Z,8.35
2023-04-09T05:10:35.568Z,8.35
2023-04-09T05:11:35.553Z,8.35
2023-04-09T05:12:35.544Z,8.37
2023-04-09T05:13:35.512Z,8.36
2023-04-09T05:14:35.498Z,8.39
2023-04-09T05:15:35.504Z,8.40
2023-04-09T05:16:35.516Z,8.40
2023-04-09T05:17:35.495Z,8.42
2023-04-09T05:18:35.453Z,8.42
2023-04-09T05:19:35.467Z,8.42
2023-04-09T05:20:35.464Z,8.42
2023-04-09T05:21:35.445Z,8.44
2023-04-09T05:22:35.439Z,8.45
2023-04-09T05:23:35.419Z,8.44
2023-04-09T05:24:35.400Z,8.45
2023-04-09T05:25:35.397Z,8.47
2023-04-09T05:26:35.399Z,8.45
2023-04-09T05:27:35.390Z,8.47
2023-04-09T05:28:35.389Z,8.47
2023-04-09T05:29:35.352Z,8.50
2023-04-09T05:30:35.428Z,8.50
2023-04-09T05:31:35.364Z,8.50
2023-04-09T05:32:35.385Z,8.51
2023-04-09T05:33:35.311Z,8.51
2023-04-09T05:34:35.310Z,8.53
2023-04-09T05:35:35.295Z,8.53
2023-04-09T05:36:35.275Z,8.54
2023-04-09T05:37:35.272Z,8.53
2023-04-09T05:38:35.236Z,8.53
2023-04-09T05:39:35.246Z,8.54
2023-04-09T05:40:35.229Z,8.54
2023-04-09T05:41:35.248Z,8.57
2023-04-09T05:42:35.235Z,8.58
2023-04-09T05:43:35.199Z,8.60
2023-04-09T05:44:35.190Z,8.62
2023-04-09T05:45:35.191Z,8.63
2023-04-09T05:46:35.158Z,8.65
2023-04-09T05:47:35.187Z,8.68
2023-04-09T05:48:35.141Z,8.69
2023-04-09T05:49:35.131Z,8.71
2023-04-09T05:50:43.892Z,8.71
2023-04-09T05:51:35.111Z,8.71
2023-04-09T05:52:35.126Z,8.72
2023-04-09T05:53:35.083Z,8.72
2023-04-09T05:54:35.066Z,8.73
2023-04-09T05:55:35.064Z,8.76
2023-04-09T05:56:35.050Z,8.75
2023-04-09T05:57:35.067Z,8.73
2023-04-09T05:58:35.039Z,8.75
2023-04-09T05:59:35.020Z,8.78
2023-04-09T06:00:35.012Z,8.76
2023-04-09T06:01:35.027Z,8.79
2023-04-09T06:02:35.135Z,8.79
2023-04-09T06:03:35.092Z,8.84
2023-04-09T06:04:35.073Z,8.83
2023-04-09T06:05:34.970Z,8.86
2023-04-09T06:06:34.969Z,8.86
2023-04-09T06:07:34.940Z,8.87
2023-04-09T06:08:34.940Z,8.86
2023-04-09T06:09:34.925Z,8.88
2023-04-09T06:10:34.884Z,8.93
2023-04-09T06:11:34.889Z,8.93
2023-04-09T06:12:34.905Z,8.96
2023-04-09T06:13:34.887Z,8.94
2023-04-09T06:14:34.854Z,8.93
2023-04-09T06:15:34.856Z,8.93
2023-04-09T06:16:34.839Z,8.94
2023-04-09T06:17:34.849Z,8.94
2023-04-09T06:18:34.830Z,8.96
2023-04-09T06:19:34.839Z,8.99
2023-04-09T06:20:34.790Z,9.02
2023-04-09T06:21:34.812Z,9.02
2023-04-09T06:22:34.771Z,9.01
2023-04-09T06:23:34.751Z,8.99
2023-04-09T06:24:34.735Z,9.01
2023-04-09T06:25:34.741Z,9.02
2023-04-09T06:26:34.740Z,9.04
2023-04-09T06:27:34.721Z,9.06
2023-04-09T06:28:34.707Z,9.09
2023-04-09T06:29:34.693Z,9.12
2023-04-09T06:30:34.683Z,9.13
2023-04-09T06:31:34.786Z,9.13
2023-04-09T06:32:46.837Z,9.18
2023-04-09T06:33:34.657Z,9.20
2023-04-09T06:34:34.741Z,9.16
2023-04-09T06:35:34.649Z,9.16
2023-04-09T06:36:34.603Z,9.16
2023-04-09T06:37:34.650Z,9.16
2023-04-09T06:38:34.579Z,9.20
2023-04-09T06:39:34.573Z,9.20
2023-04-09T06:40:34.562Z,9.24
2023-04-09T06:41:34.564Z,9.24
2023-04-09T06:42:34.535Z,9.24
2023-04-09T06:43:34.552Z,9.27
2023-04-09T06:44:34.513Z,9.28
2023-04-09T06:45:34.530Z,9.31
2023-04-09T06:46:34.531Z,9.34
2023-04-09T06:47:34.484Z,9.34
2023-04-09T06:48:34.469Z,9.35
2023-04-09T06:49:34.482Z,9.35
2023-04-09T06:50:34.472Z,9.38
2023-04-09T06:51:34.448Z,9.39
2023-04-09T06:52:34.437Z,9.39
2023-04-09T06:53:34.479Z,9.39
2023-04-09T06:54:34.407Z,9.42
2023-04-09T06:55:34.426Z,9.45
2023-04-09T06:56:34.390Z,9.46
2023-04-09T06:57:34.385Z,9.49
2023-04-09T06:58:34.374Z,9.52
2023-04-09T06:59:34.367Z,9.56
2023-04-09T07:00:34.381Z,9.60
2023-04-09T07:01:34.401Z,9.61
2023-04-09T07:02:34.421Z,9.67
2023-04-09T07:03:34.483Z,9.67
2023-04-09T07:04:34.442Z,9.67
2023-04-09T07:05:34.283Z,9.70
2023-04-09T07:06:34.277Z,9.73
2023-04-09T07:07:34.552Z,9.76
2023-04-09T07:08:34.254Z,9.78
2023-04-09T07:09:34.260Z,9.79
2023-04-09T07:10:34.237Z,9.78
2023-04-09T07:11:34.232Z,9.71
2023-04-09T07:12:34.213Z,9.70
2023-04-09T07:13:34.240Z,9.68
2023-04-09T07:14:34.188Z,9.67
2023-04-09T07:15:34.192Z,9.66
2023-04-09T07:16:34.203Z,9.61
2023-04-09T07:17:34.165Z,9.60
2023-04-09T07:18:34.145Z,9.60
2023-04-09T07:19:34.209Z,9.60
2023-04-09T07:20:34.122Z,9.63
2023-04-09T07:21:34.097Z,9.66
2023-04-09T07:22:34.099Z,9.70
2023-04-09T07:23:34.118Z,9.71
2023-04-09T07:24:34.076Z,9.68
2023-04-09T07:25:34.115Z,9.70
2023-04-09T07:26:34.061Z,9.71
2023-04-09T07:27:34.055Z,9.76
2023-04-09T07:28:34.085Z,9.75
2023-04-09T07:29:34.051Z,9.78
2023-04-09T07:30:34.026Z,9.81
2023-04-09T07:31:35.882Z,9.79
2023-04-09T07:32:34.071Z,9.79
2023-04-09T07:33:34.002Z,9.79
2023-04-09T07:34:33.990Z,9.81
2023-04-09T07:35:34.007Z,9.81
2023-04-09T07:36:33.953Z,9.83
2023-04-09T07:37:33.968Z,9.86
2023-04-09T07:38:33.959Z,9.89
2023-04-09T07:39:33.924Z,9.94
2023-04-09T07:40:33.936Z,10.03
2023-04-09T07:41:33.902Z,10.06
2023-04-09T07:42:33.894Z,10.12
2023-04-09T07:43:33.909Z,10.12
2023-04-09T07:44:33.855Z,10.17
2023-04-09T07:45:33.850Z,10.10
2023-04-09T07:46:33.863Z,10.12
2023-04-09T07:47:33.886Z,10.17
2023-04-09T07:48:33.819Z,10.19
2023-04-09T07:49:33.869Z,10.21
2023-04-09T07:50:33.810Z,10.24
2023-04-09T07:51:33.781Z,10.24
2023-04-09T07:52:33.775Z,10.25
2023-04-09T07:53:33.793Z,10.24
2023-04-09T07:54:33.746Z,10.25
2023-04-09T07:55:33.749Z,10.28
2023-04-09T07:56:33.752Z,10.33
2023-04-09T07:57:33.736Z,10.37
2023-04-09T07:58:33.701Z,10.39
2023-04-09T07:59:33.697Z,10.33
2023-04-09T08:00:33.687Z,10.33
2023-04-09T08:01:33.710Z,10.34
2023-04-09T08:02:33.757Z,10.34
2023-04-09T08:03:33.788Z,10.34
2023-04-09T08:04:33.730Z,10.37
2023-04-09T08:05:33.648Z,10.39
2023-04-09T08:06:33.634Z,10.42
2023-04-09T08:07:33.624Z,10.42
2023-04-09T08:08:33.600Z,10.39
2023-04-09T08:09:33.597Z,10.37
2023-04-09T08:10:33.578Z,10.34
2023-04-09T08:11:33.559Z,10.34
2023-04-09T08:12:33.558Z,10.36
2023-04-09T08:13:33.658Z,10.36
2023-04-09T08:14:33.529Z,10.40
2023-04-09T08:15:33.534Z,10.42
2023-04-09T08:16:33.545Z,10.37
2023-04-09T08:17:33.548Z,10.33
2023-04-09T08:18:33.502Z,10.32
2023-04-09T08:19:33.503Z,10.34
2023-04-09T08:20:33.488Z,10.34
2023-04-09T08:21:33.475Z,10.32
2023-04-09T08:22:33.462Z,10.30
2023-04-09T08:23:33.463Z,10.32
2023-04-09T08:24:33.455Z,10.30
2023-04-09T08:25:33.452Z,10.32
2023-04-09T08:26:33.410Z,10.32
2023-04-09T08:27:33.400Z,10.34
2023-04-09T08:28:33.462Z,10.36
2023-04-09T08:29:33.428Z,10.40
2023-04-09T08:30:33.395Z,10.43
2023-04-09T08:31:33.455Z,10.44
2023-04-09T08:32:33.399Z,10.47
2023-04-09T08:33:33.377Z,10.53
2023-04-09T08:34:33.339Z,10.60
2023-04-09T08:35:33.327Z,10.66
2023-04-09T08:36:33.327Z,10.71
2023-04-09T08:37:33.387Z,10.76
2023-04-09T08:38:33.294Z,10.77
2023-04-09T08:39:33.293Z,10.80
2023-04-09T08:40:33.272Z,10.84
2023-04-09T08:41:33.331Z,10.86
2023-04-09T08:42:33.235Z,10.84
2023-04-09T08:43:47.191Z,10.86
2023-04-09T08:44:33.250Z,10.76
2023-04-09T08:45:33.209Z,10.74
2023-04-09T08:46:33.225Z,10.74
2023-04-09T08:47:33.356Z,10.68
2023-04-09T08:48:33.281Z,10.63
2023-04-09T08:49:33.199Z,10.65
2023-04-09T08:50:33.154Z,10.70
2023-04-09T08:51:33.152Z,10.73
2023-04-09T08:52:33.140Z,10.73
2023-04-09T08:53:33.135Z,10.77
2023-04-09T08:54:33.150Z,10.78
2023-04-09T08:55:33.138Z,10.78
2023-04-09T08:56:33.111Z,10.78
2023-04-09T08:57:33.082Z,10.77
2023-04-09T08:58:33.074Z,10.84
2023-04-09T08:59:33.040Z,10.89
2023-04-09T09:00:33.192Z,10.92
2023-04-09T09:01:33.214Z,10.98
2023-04-09T09:02:33.053Z,11.02
2023-04-09T09:03:33.035Z,11.11
2023-04-09T09:04:33.078Z,11.16
2023-04-09T09:05:32.985Z,11.10
2023-04-09T09:06:33.496Z,11.13
2023-04-09T09:07:32.993Z,11.21
2023-04-09T09:08:32.954Z,11.28
2023-04-09T09:09:32.963Z,11.34
2023-04-09T09:10:32.952Z,11.31
2023-04-09T09:11:32.939Z,11.36
2023-04-09T09:12:32.896Z,11.43
2023-04-09T09:13:32.913Z,11.47
2023-04-09T09:14:32.883Z,11.44
2023-04-09T09:15:32.896Z,11.41
2023-04-09T09:16:32.909Z,11.43
2023-04-09T09:17:33.250Z,11.50
2023-04-09T09:18:32.875Z,11.57
2023-04-09T09:19:32.876Z,11.68
2023-04-09T09:20:33.663Z,11.72
2023-04-09T09:21:32.897Z,11.75
2023-04-09T09:22:32.814Z,11.85
2023-04-09T09:23:32.867Z,11.97
2023-04-09T09:24:32.776Z,12.08
2023-04-09T09:25:32.993Z,12.19
2023-04-09T09:26:32.784Z,12.26
2023-04-09T09:27:32.828Z,12.34
2023-04-09T09:28:32.771Z,12.37
2023-04-09T09:29:32.719Z,12.38
2023-04-09T09:30:32.784Z,12.44
2023-04-09T09:31:33.033Z,12.33
2023-04-09T09:32:32.713Z,12.29
2023-04-09T09:33:32.685Z,12.21
2023-04-09T09:34:32.660Z,12.11
2023-04-09T09:35:32.706Z,12.09
2023-04-09T09:36:32.743Z,12.15
2023-04-09T09:37:32.674Z,12.19
2023-04-09T09:38:32.735Z,12.23
2023-04-09T09:39:32.605Z,12.27
2023-04-09T09:40:32.643Z,12.31
2023-04-09T09:41:32.637Z,12.29
2023-04-09T09:42:32.576Z,12.27
2023-04-09T09:43:32.599Z,12.23
2023-04-09T09:44:32.578Z,12.13
2023-04-09T09:45:32.586Z,12.06
2023-04-09T09:46:32.664Z,12.01
2023-04-09T09:47:32.548Z,11.97
2023-04-09T09:48:32.544Z,12.04
2023-04-09T09:49:32.567Z,12.06
2023-04-09T09:50:32.516Z,12.12
2023-04-09T09:51:32.478Z,12.26
2023-04-09T09:52:32.500Z,12.34
2023-04-09T09:53:32.466Z,12.46
2023-04-09T09:54:32.467Z,12.57
2023-04-09T09:55:32.489Z,12.69
2023-04-09T09:56:32.492Z,12.85
2023-04-09T09:57:32.509Z,13.03
2023-04-09T09:58:32.403Z,13.18
2023-04-09T09:59:32.461Z,13.33
2023-04-09T10:00:32.387Z,13.41
2023-04-09T10:01:32.492Z,13.47
2023-04-09T10:02:32.415Z,13.46
2023-04-09T10:03:32.460Z,13.46
2023-04-09T10:04:32.412Z,13.38
2023-04-09T10:05:32.336Z,13.27
2023-04-09T10:06:32.349Z,13.12
2023-04-09T10:07:32.319Z,13.02
2023-04-09T10:08:32.290Z,12.89
2023-04-09T10:09:32.326Z,12.70
2023-04-09T10:10:32.281Z,12.70
2023-04-09T10:11:32.283Z,12.70
2023-04-09T10:12:32.268Z,12.74
2023-04-09T10:13:32.323Z,12.77
2023-04-09T10:14:32.254Z,12.81
2023-04-09T10:15:32.340Z,12.89
2023-04-09T10:16:32.266Z,12.95
2023-04-09T10:17:32.466Z,13.02
2023-04-09T10:18:32.370Z,12.89
2023-04-09T10:19:32.337Z,12.84
2023-04-09T10:20:33.028Z,12.74
2023-04-09T10:21:32.369Z,12.78
2023-04-09T10:22:32.337Z,12.95
2023-04-09T10:23:32.195Z,13.07
2023-04-09T10:24:32.604Z,13.17
2023-04-09T10:25:32.153Z,13.29
2023-04-09T10:26:32.119Z,13.25
2023-04-09T10:27:32.141Z,13.30
2023-04-09T10:28:32.141Z,13.41
2023-04-09T10:29:32.161Z,13.47
2023-04-09T10:30:32.080Z,13.41
2023-04-09T10:31:32.173Z,13.38
2023-04-09T10:32:32.084Z,13.47
2023-04-09T10:33:32.026Z,13.59
2023-04-09T10:34:32.037Z,13.77
2023-04-09T10:35:32.007Z,13.92
2023-04-09T10:36:32.004Z,14.04
2023-04-09T10:37:32.028Z,14.14
2023-04-09T10:38:32.161Z,14.21
2023-04-09T10:39:32.108Z,14.24
2023-04-09T10:40:32.012Z,14.24
2023-04-09T10:41:31.989Z,14.31
2023-04-09T10:42:31.995Z,14.38
2023-04-09T10:43:32.055Z,14.46
2023-04-09T10:44:31.931Z,14.43
2023-04-09T10:45:32.086Z,14.49
2023-04-09T10:46:31.988Z,14.49
2023-04-09T10:47:31.959Z,14.57
2023-04-09T10:48:31.943Z,14.65
2023-04-09T10:49:31.942Z,14.69
2023-04-09T10:50:31.901Z,14.72
2023-04-09T10:51:31.909Z,14.75
2023-04-09T10:52:31.891Z,14.74
2023-04-09T10:53:31.834Z,14.67
2023-04-09T10:54:31.827Z,14.53
2023-04-09T10:55:31.803Z,14.54
2023-04-09T10:56:31.763Z,14.60
2023-04-09T10:57:31.752Z,14.64
2023-04-09T10:58:31.760Z,14.64
2023-04-09T10:59:31.780Z,14.54
2023-04-09T11:00:31.729Z,14.53
2023-04-09T11:01:31.921Z,14.53
2023-04-09T11:02:31.992Z,14.62
2023-04-09T11:03:31.736Z,14.49
2023-04-09T11:04:31.753Z,14.47
2023-04-09T11:05:31.668Z,14.46
2023-04-09T11:06:31.664Z,14.52
2023-04-09T11:07:31.658Z,14.57
2023-04-09T11:08:31.657Z,14.64
2023-04-09T11:09:31.656Z,14.69
2023-04-09T11:10:31.625Z,14.57
2023-04-09T11:11:31.624Z,14.44
2023-04-09T11:12:31.592Z,14.37
2023-04-09T11:13:31.745Z,14.34
2023-04-09T11:14:31.616Z,14.34
2023-04-09T11:15:31.569Z,14.31
2023-04-09T11:16:31.593Z,14.29
2023-04-09T11:17:31.576Z,14.28
2023-04-09T11:18:31.607Z,14.28
2023-04-09T11:19:31.541Z,14.29
2023-04-09T11:20:31.509Z,14.27
2023-04-09T11:21:31.521Z,14.28
2023-04-09T11:22:31.477Z,14.32
2023-04-09T11:23:31.506Z,14.43
2023-04-09T11:24:31.475Z,14.52
2023-04-09T11:25:31.491Z,14.53
2023-04-09T11:26:31.437Z,14.52
2023-04-09T11:27:31.506Z,14.53
2023-04-09T11:28:32.747Z,14.69
2023-04-09T11:29:31.451Z,14.80
2023-04-09T11:30:31.392Z,14.83
2023-04-09T11:31:31.423Z,14.64
2023-04-09T11:32:31.407Z,14.56
2023-04-09T11:33:31.382Z,14.53
2023-04-09T11:34:31.365Z,14.65
2023-04-09T11:35:31.364Z,14.72
2023-04-09T11:36:31.336Z,14.75
2023-04-09T11:37:31.321Z,14.86
2023-04-09T11:38:31.317Z,14.94
2023-04-09T11:39:31.320Z,15.08
2023-04-09T11:40:31.309Z,15.06
2023-04-09T11:41:31.272Z,15.09
2023-04-09T11:42:31.276Z,15.03
2023-04-09T11:43:31.259Z,15.09
2023-04-09T11:44:31.283Z,15.21
2023-04-09T11:45:31.245Z,15.35
2023-04-09T11:46:31.266Z,15.45
2023-04-09T11:47:31.263Z,15.48
2023-04-09T11:48:31.218Z,15.46
2023-04-09T11:49:31.208Z,15.52
2023-04-09T11:50:31.182Z,15.54
2023-04-09T11:51:31.174Z,15.51
2023-04-09T11:52:31.170Z,15.45
2023-04-09T11:53:31.152Z,15.41
2023-04-09T11:54:31.155Z,15.28
2023-04-09T11:55:31.146Z,15.24
2023-04-09T11:56:31.149Z,14.98
2023-04-09T11:57:31.103Z,14.91
2023-04-09T11:58:31.104Z,14.86
2023-04-09T11:59:31.161Z,14.95
2023-04-09T12:00:31.072Z,15.12
2023-04-09T12:01:31.070Z,15.20
2023-04-09T12:02:31.145Z,15.11
2023-04-09T12:03:31.347Z,14.99
2023-04-09T12:04:31.192Z,14.90
2023-04-09T12:05:31.020Z,14.87
2023-04-09T12:06:31.013Z,14.87
2023-04-09T12:07:31.003Z,14.99
2023-04-09T12:08:31.001Z,15.13
2023-04-09T12:09:30.998Z,15.19
2023-04-09T12:10:30.971Z,15.13
2023-04-09T12:11:31.007Z,15.15
2023-04-09T12:12:30.987Z,15.19
2023-04-09T12:13:30.998Z,15.27
2023-04-09T12:14:30.955Z,15.27
2023-04-09T12:15:30.919Z,15.15
2023-04-09T12:16:30.970Z,15.26
2023-04-09T12:17:30.951Z,15.30
2023-04-09T12:18:30.899Z,15.30
2023-04-09T12:19:30.933Z,15.28
2023-04-09T12:20:30.872Z,15.26
2023-04-09T12:21:30.906Z,15.17
2023-04-09T12:22:30.894Z,15.23
2023-04-09T12:23:30.837Z,15.28
2023-04-09T12:24:30.847Z,15.39
2023-04-09T12:25:30.834Z,15.57
2023-04-09T12:26:30.809Z,15.70
2023-04-09T12:27:32.942Z,15.85
2023-04-09T12:28:30.808Z,16.04
2023-04-09T12:29:30.800Z,16.23
2023-04-09T12:30:30.758Z,16.35
2023-04-09T12:31:30.810Z,16.45
2023-04-09T12:32:30.751Z,16.38
2023-04-09T12:33:30.718Z,16.18
2023-04-09T12:34:30.740Z,16.18
2023-04-09T12:35:30.802Z,16.07
2023-04-09T12:36:30.694Z,16.01
2023-04-09T12:37:30.711Z,15.82
2023-04-09T12:38:30.682Z,15.79
2023-04-09T12:39:32.569Z,15.82
2023-04-09T12:40:30.647Z,15.70
2023-04-09T12:41:30.628Z,15.76
2023-04-09T12:42:30.622Z,15.81
2023-04-09T12:43:30.620Z,15.81
2023-04-09T12:44:30.654Z,15.70
2023-04-09T12:45:30.592Z,15.67
2023-04-09T12:46:30.625Z,15.68
2023-04-09T12:47:30.617Z,15.67
2023-04-09T12:48:30.565Z,15.67
2023-04-09T12:49:30.573Z,15.59
2023-04-09T12:50:30.530Z,15.57
2023-04-09T12:51:30.542Z,15.48
2023-04-09T12:52:30.513Z,15.36
2023-04-09T12:53:30.523Z,15.35
2023-04-09T12:54:30.516Z,15.45
2023-04-09T12:55:30.516Z,15.64
2023-04-09T12:56:30.475Z,15.66
2023-04-09T12:57:30.453Z,15.67
2023-04-09T12:58:30.483Z,15.67
2023-04-09T12:59:30.457Z,15.74
2023-04-09T13:00:30.431Z,15.67
2023-04-09T13:01:30.461Z,15.63
2023-04-09T13:02:30.608Z,15.64
2023-04-09T13:03:30.623Z,15.67
2023-04-09T13:04:30.536Z,15.59
2023-04-09T13:05:30.389Z,15.52
2023-04-09T13:06:30.374Z,15.51
2023-04-09T13:07:30.380Z,15.61